createdAt,value
2019-06-26T00:00:16.290Z,0
2019-06-26T00:01:16.517Z,0
2019-06-26T00:02:16.527Z,0
2019-06-26T00:03:16.009Z,0
2019-06-26T00:04:16.035Z,0
2019-06-26T00:05:16.257Z,0
2019-06-26T00:06:16.032Z,0
2019-06-26T00:07:16.295Z,0
2019-06-26T00:08:16.236Z,0
2019-06-26T00:09:16.538Z,0
2019-06-26T00:10:16.108Z,0
2019-06-26T00:11:16.281Z,0
2019-06-26T00:12:16.045Z,0
2019-06-26T00:13:31.952Z,0
2019-06-26T00:14:16.577Z,0
2019-06-26T00:15:16.326Z,0
2019-06-26T00:16:16.061Z,0
2019-06-26T00:17:16.309Z,0
2019-06-26T00:18:16.312Z,0
2019-06-26T00:19:16.330Z,0
2019-06-26T00:20:16.310Z,0
2019-06-26T00:21:16.542Z,0
2019-06-26T00:22:16.535Z,0
2019-06-26T00:23:16.312Z,0
2019-06-26T00:24:16.329Z,0
2019-06-26T00:25:15.832Z,0
2019-06-26T00:26:16.405Z,0
2019-06-26T00:27:16.074Z,0
2019-06-26T00:28:16.592Z,0
2019-06-26T00:29:16.088Z,0
2019-06-26T00:30:16.126Z,0
2019-06-26T00:31:16.628Z,0
2019-06-26T00:32:16.416Z,0
2019-06-26T00:33:15.850Z,0
2019-06-26T00:34:16.673Z,0
2019-06-26T00:35:16.367Z,0
2019-06-26T00:36:16.633Z,0
2019-06-26T00:37:16.116Z,0
2019-06-26T00:38:16.092Z,0
2019-06-26T00:39:15.880Z,0
2019-06-26T00:40:16.122Z,0
2019-06-26T00:41:16.133Z,0
2019-06-26T00:42:16.635Z,0
2019-06-26T00:43:15.903Z,0
2019-06-26T00:44:16.365Z,0
2019-06-26T00:45:16.155Z,0
2019-06-26T00:46:15.895Z,0
2019-06-26T00:47:16.177Z,0
2019-06-26T00:48:16.442Z,0
2019-06-26T00:49:16.221Z,0
2019-06-26T00:50:15.990Z,0
2019-06-26T00:51:16.661Z,0
2019-06-26T00:52:16.400Z,0
2019-06-26T00:53:16.391Z,0
2019-06-26T00:54:16.408Z,0
2019-06-26T00:55:16.636Z,0
2019-06-26T00:56:16.401Z,0
2019-06-26T00:57:16.431Z,0
2019-06-26T00:58:15.989Z,0
2019-06-26T00:59:16.408Z,0
2019-06-26T01:00:16.247Z,0
2019-06-26T01:01:16.415Z,0
2019-06-26T01:02:16.426Z,0
2019-06-26T01:03:16.195Z,0
2019-06-26T01:04:16.672Z,0
2019-06-26T01:05:16.421Z,0
2019-06-26T01:06:16.197Z,0
2019-06-26T01:07:16.684Z,0
2019-06-26T01:08:16.201Z,0
2019-06-26T01:09:16.514Z,0
2019-06-26T01:10:16.437Z,0
2019-06-26T01:11:15.945Z,0
2019-06-26T01:12:16.191Z,0
2019-06-26T01:13:16.203Z,0
2019-06-26T01:14:16.528Z,0
2019-06-26T01:15:16.453Z,0
2019-06-26T01:16:16.486Z,0
2019-06-26T01:17:16.205Z,0
2019-06-26T01:18:15.964Z,0
2019-06-26T01:19:16.468Z,0
2019-06-26T01:20:16.237Z,0
2019-06-26T01:21:16.213Z,0
2019-06-26T01:22:16.484Z,0
2019-06-26T01:23:16.032Z,0
2019-06-26T01:24:16.475Z,0
2019-06-26T01:25:16.780Z,0
2019-06-26T01:26:16.477Z,0
2019-06-26T01:27:16.553Z,0
2019-06-26T01:28:16.005Z,0
2019-06-26T01:29:16.303Z,0
2019-06-26T01:30:16.550Z,0
2019-06-26T01:31:16.331Z,0
2019-06-26T01:32:16.259Z,0
2019-06-26T01:33:16.040Z,0
2019-06-26T01:34:16.024Z,0
2019-06-26T01:35:16.534Z,0
2019-06-26T01:36:16.284Z,0
2019-06-26T01:37:16.270Z,0
2019-06-26T01:38:16.288Z,0
2019-06-26T01:39:16.283Z,0
2019-06-26T01:40:16.333Z,0
2019-06-26T01:41:16.064Z,0
2019-06-26T01:42:16.807Z,0
2019-06-26T01:43:16.605Z,0
2019-06-26T01:44:24.181Z,0
2019-06-26T01:45:16.800Z,0
2019-06-26T01:46:16.549Z,0
2019-06-26T01:47:16.795Z,0
2019-06-26T01:48:16.092Z,0
2019-06-26T01:49:16.552Z,0
2019-06-26T01:50:16.561Z,0
2019-06-26T01:51:16.816Z,0
2019-06-26T01:52:16.586Z,0
2019-06-26T01:53:16.636Z,0
2019-06-26T01:54:16.557Z,0
2019-06-26T01:55:16.364Z,0
2019-06-26T01:56:16.074Z,0
2019-06-26T01:57:16.071Z,0
2019-06-26T01:58:16.581Z,0
2019-06-26T01:59:16.574Z,0
2019-06-26T02:00:16.348Z,0
2019-06-26T02:01:16.841Z,0
2019-06-26T02:02:16.862Z,0
2019-06-26T02:03:16.870Z,0
2019-06-26T02:04:20.069Z,0
2019-06-26T02:05:16.852Z,0
2019-06-26T02:06:16.644Z,0
2019-06-26T02:07:16.354Z,0
2019-06-26T02:08:16.587Z,0
2019-06-26T02:09:16.367Z,0
2019-06-26T02:10:16.883Z,0
2019-06-26T02:11:16.593Z,0
2019-06-26T02:12:16.600Z,0
2019-06-26T02:13:16.355Z,0
2019-06-26T02:14:32.271Z,0
2019-06-26T02:15:16.651Z,0
2019-06-26T02:16:16.865Z,0
2019-06-26T02:17:16.618Z,0
2019-06-26T02:18:16.880Z,0
2019-06-26T02:19:16.900Z,0
2019-06-26T02:20:16.711Z,0
2019-06-26T02:21:16.634Z,0
2019-06-26T02:22:16.660Z,0
2019-06-26T02:23:16.394Z,0
2019-06-26T02:24:16.768Z,0
2019-06-26T02:25:16.387Z,0
2019-06-26T02:26:16.668Z,0
2019-06-26T02:27:16.391Z,0
2019-06-26T02:28:16.631Z,0
2019-06-26T02:29:16.679Z,0
2019-06-26T02:30:16.736Z,0
2019-06-26T02:31:16.485Z,0
2019-06-26T02:32:16.685Z,0
2019-06-26T02:33:16.646Z,0
2019-06-26T02:34:16.414Z,0
2019-06-26T02:35:19.575Z,0
2019-06-26T02:36:17.044Z,0
2019-06-26T02:37:16.666Z,0
2019-06-26T02:38:16.956Z,0
2019-06-26T02:39:16.235Z,0
2019-06-26T02:40:16.976Z,0
2019-06-26T02:41:16.936Z,0
2019-06-26T02:42:16.197Z,0
2019-06-26T02:43:16.824Z,0
2019-06-26T02:44:16.694Z,0
2019-06-26T02:45:16.769Z,0
2019-06-26T02:46:16.946Z,0
2019-06-26T02:47:29.316Z,0
2019-06-26T02:48:16.454Z,0
2019-06-26T02:49:17.006Z,0
2019-06-26T02:50:16.574Z,0
2019-06-26T02:51:16.928Z,0
2019-06-26T02:52:16.198Z,0
2019-06-26T02:53:16.961Z,0
2019-06-26T02:54:16.962Z,0
2019-06-26T02:55:16.660Z,0
2019-06-26T02:56:16.511Z,0
2019-06-26T02:57:16.332Z,0
2019-06-26T02:58:16.485Z,0
2019-06-26T02:59:16.733Z,0
2019-06-26T03:00:16.718Z,0
2019-06-26T03:01:16.503Z,0
2019-06-26T03:02:16.980Z,0
2019-06-26T03:03:16.509Z,0
2019-06-26T03:04:16.239Z,0
2019-06-26T03:05:16.225Z,0
2019-06-26T03:06:16.478Z,0
2019-06-26T03:07:16.504Z,0
2019-06-26T03:08:16.985Z,0
2019-06-26T03:09:16.484Z,0
2019-06-26T03:10:16.503Z,0
2019-06-26T03:11:16.753Z,0
2019-06-26T03:12:16.023Z,0
2019-06-26T03:13:16.730Z,0
2019-06-26T03:14:16.996Z,0
2019-06-26T03:15:18.380Z,0
2019-06-26T03:16:16.520Z,5
2019-06-26T03:17:16.531Z,5
2019-06-26T03:18:17.010Z,5
2019-06-26T03:19:17.014Z,5
2019-06-26T03:20:16.314Z,5
2019-06-26T03:21:16.522Z,5
2019-06-26T03:22:17.061Z,5
2019-06-26T03:23:16.751Z,5
2019-06-26T03:24:16.528Z,5
2019-06-26T03:25:17.062Z,10
2019-06-26T03:26:16.314Z,10
2019-06-26T03:27:18.533Z,10
2019-06-26T03:28:16.913Z,10
2019-06-26T03:29:16.775Z,10
2019-06-26T03:30:17.038Z,10
2019-06-26T03:31:17.134Z,15
2019-06-26T03:32:17.060Z,15
2019-06-26T03:33:16.919Z,15
2019-06-26T03:34:17.146Z,15
2019-06-26T03:35:17.039Z,15
2019-06-26T03:36:16.795Z,20
2019-06-26T03:37:16.802Z,20
2019-06-26T03:38:16.814Z,20
2019-06-26T03:39:16.842Z,25
2019-06-26T03:40:16.797Z,25
2019-06-26T03:41:16.624Z,25
2019-06-26T03:42:16.299Z,25
2019-06-26T03:43:17.228Z,30
2019-06-26T03:44:16.749Z,30
2019-06-26T03:45:32.937Z,30
2019-06-26T03:46:16.906Z,30
2019-06-26T03:47:17.088Z,30
2019-06-26T03:48:17.116Z,35
2019-06-26T03:49:16.839Z,35
2019-06-26T03:50:16.599Z,35
2019-06-26T03:51:20.983Z,40
2019-06-26T03:52:16.844Z,45
2019-06-26T03:53:17.080Z,45
2019-06-26T03:54:16.845Z,45
2019-06-26T03:55:16.719Z,50
2019-06-26T03:56:17.134Z,55
2019-06-26T03:57:16.603Z,60
2019-06-26T03:58:16.631Z,60
2019-06-26T03:59:16.606Z,60
2019-06-26T04:00:16.632Z,65
2019-06-26T04:01:17.229Z,70
2019-06-26T04:02:16.381Z,75
2019-06-26T04:03:17.241Z,75
2019-06-26T04:04:16.969Z,80
2019-06-26T04:05:17.179Z,80
2019-06-26T04:06:16.368Z,85
2019-06-26T04:07:16.614Z,90
2019-06-26T04:08:16.939Z,95
2019-06-26T04:09:16.935Z,95
2019-06-26T04:10:16.866Z,100
2019-06-26T04:11:16.882Z,100
2019-06-26T04:12:17.162Z,105
2019-06-26T04:13:16.645Z,105
2019-06-26T04:14:17.124Z,110
2019-06-26T04:15:16.392Z,115
2019-06-26T04:16:16.634Z,120
2019-06-26T04:17:16.877Z,125
2019-06-26T04:18:16.978Z,125
2019-06-26T04:19:16.871Z,130
2019-06-26T04:20:17.193Z,135
2019-06-26T04:21:17.205Z,140
2019-06-26T04:22:16.440Z,140
2019-06-26T04:23:16.642Z,145
2019-06-26T04:24:16.406Z,150
2019-06-26T04:25:16.910Z,155
2019-06-26T04:26:16.666Z,155
2019-06-26T04:27:16.658Z,165
2019-06-26T04:28:17.173Z,165
2019-06-26T04:29:17.164Z,170
2019-06-26T04:30:17.201Z,170
2019-06-26T04:31:16.657Z,175
2019-06-26T04:32:16.677Z,180
2019-06-26T04:33:16.435Z,185
2019-06-26T04:34:16.478Z,190
2019-06-26T04:35:16.719Z,195
2019-06-26T04:36:16.959Z,195
2019-06-26T04:37:16.478Z,200
2019-06-26T04:38:16.699Z,200
2019-06-26T04:39:16.710Z,200
2019-06-26T04:40:16.456Z,200
2019-06-26T04:41:16.458Z,205
2019-06-26T04:42:16.213Z,215
2019-06-26T04:43:16.967Z,210
2019-06-26T04:44:16.760Z,215
2019-06-26T04:45:17.026Z,220
2019-06-26T04:46:16.740Z,220
2019-06-26T04:47:16.768Z,225
2019-06-26T04:48:16.746Z,225
2019-06-26T04:49:16.517Z,230
2019-06-26T04:50:17.252Z,235
2019-06-26T04:51:16.771Z,235
2019-06-26T04:52:17.255Z,245
2019-06-26T04:53:17.312Z,250
2019-06-26T04:54:16.763Z,250
2019-06-26T04:55:16.814Z,255
2019-06-26T04:56:17.290Z,260
2019-06-26T04:57:16.555Z,260
2019-06-26T04:58:17.286Z,265
2019-06-26T04:59:16.569Z,265
2019-06-26T05:00:17.301Z,270
2019-06-26T05:01:16.637Z,270
2019-06-26T05:02:17.119Z,275
2019-06-26T05:03:16.812Z,280
2019-06-26T05:04:16.806Z,280
2019-06-26T05:05:16.828Z,280
2019-06-26T05:06:16.824Z,280
2019-06-26T05:07:17.336Z,285
2019-06-26T05:08:17.172Z,290
2019-06-26T05:09:17.237Z,295
2019-06-26T05:10:17.424Z,295
2019-06-26T05:11:19.865Z,300
2019-06-26T05:12:17.118Z,300
2019-06-26T05:13:17.105Z,300
2019-06-26T05:14:16.897Z,305
2019-06-26T05:15:17.150Z,305
2019-06-26T05:16:27.441Z,310
2019-06-26T05:17:16.890Z,310
2019-06-26T05:18:17.390Z,305
2019-06-26T05:19:17.232Z,290
2019-06-26T05:20:17.395Z,275
2019-06-26T05:21:16.945Z,275
2019-06-26T05:22:17.412Z,255
2019-06-26T05:23:16.743Z,240
2019-06-26T05:24:17.188Z,240
2019-06-26T05:25:17.211Z,255
2019-06-26T05:26:17.196Z,275
2019-06-26T05:27:17.452Z,290
2019-06-26T05:28:17.621Z,285
2019-06-26T05:29:17.228Z,290
2019-06-26T05:30:17.015Z,300
2019-06-26T05:31:17.002Z,310
2019-06-26T05:32:17.265Z,320
2019-06-26T05:33:17.019Z,330
2019-06-26T05:34:20.035Z,330
2019-06-26T05:35:17.487Z,335
2019-06-26T05:36:17.543Z,340
2019-06-26T05:37:17.433Z,335
2019-06-26T05:38:17.269Z,340
2019-06-26T05:39:17.383Z,340
2019-06-26T05:40:17.122Z,345
2019-06-26T05:41:16.803Z,345
2019-06-26T05:42:17.095Z,350
2019-06-26T05:43:17.576Z,350
2019-06-26T05:44:17.087Z,350
2019-06-26T05:45:17.307Z,350
2019-06-26T05:46:32.473Z,355
2019-06-26T05:47:17.330Z,355
2019-06-26T05:48:17.336Z,360
2019-06-26T05:49:17.582Z,365
2019-06-26T05:50:18.014Z,360
2019-06-26T05:51:17.385Z,340
2019-06-26T05:52:21.345Z,360
2019-06-26T05:53:17.688Z,360
2019-06-26T05:54:17.174Z,360
2019-06-26T05:55:17.401Z,360
2019-06-26T05:56:17.439Z,360
2019-06-26T05:57:16.918Z,360
2019-06-26T05:58:17.433Z,360
2019-06-26T05:59:16.955Z,360
2019-06-26T06:00:17.626Z,360
2019-06-26T06:01:17.724Z,360
2019-06-26T06:02:17.725Z,365
2019-06-26T06:03:17.455Z,365
2019-06-26T06:04:17.585Z,365
2019-06-26T06:05:17.722Z,365
2019-06-26T06:06:17.003Z,370
2019-06-26T06:07:17.739Z,370
2019-06-26T06:08:17.024Z,370
2019-06-26T06:09:17.510Z,375
2019-06-26T06:10:17.081Z,375
2019-06-26T06:11:17.557Z,380
2019-06-26T06:12:17.782Z,380
2019-06-26T06:13:16.819Z,375
2019-06-26T06:14:17.867Z,380
2019-06-26T06:15:17.137Z,385
2019-06-26T06:16:17.357Z,385
2019-06-26T06:17:17.593Z,385
2019-06-26T06:18:17.683Z,390
2019-06-26T06:19:17.350Z,385
2019-06-26T06:20:17.361Z,395
2019-06-26T06:21:17.627Z,390
2019-06-26T06:22:17.367Z,335
2019-06-26T06:23:17.147Z,385
2019-06-26T06:24:17.156Z,390
2019-06-26T06:25:17.902Z,395
2019-06-26T06:26:17.729Z,395
2019-06-26T06:27:17.181Z,390
2019-06-26T06:28:17.986Z,390
2019-06-26T06:29:17.734Z,390
2019-06-26T06:30:17.459Z,390
2019-06-26T06:31:17.440Z,390
2019-06-26T06:32:17.852Z,390
2019-06-26T06:33:17.799Z,390
2019-06-26T06:34:17.987Z,390
2019-06-26T06:35:18.041Z,390
2019-06-26T06:36:18.883Z,390
2019-06-26T06:37:17.816Z,390
2019-06-26T06:38:18.033Z,400
2019-06-26T06:39:17.290Z,395
2019-06-26T06:40:17.831Z,395
2019-06-26T06:41:18.067Z,400
2019-06-26T06:42:17.813Z,395
2019-06-26T06:43:17.844Z,400
2019-06-26T06:44:18.050Z,395
2019-06-26T06:45:17.591Z,395
2019-06-26T06:46:17.609Z,395
2019-06-26T06:47:18.406Z,400
2019-06-26T06:48:18.124Z,395
2019-06-26T06:49:17.686Z,400
2019-06-26T06:50:17.873Z,400
2019-06-26T06:51:18.230Z,400
2019-06-26T06:52:21.006Z,400
2019-06-26T06:53:17.957Z,400
2019-06-26T06:54:17.793Z,400
2019-06-26T06:55:17.779Z,400
2019-06-26T06:56:17.971Z,400
2019-06-26T06:57:18.230Z,400
2019-06-26T06:58:17.981Z,400
2019-06-26T06:59:18.024Z,400
2019-06-26T07:00:17.768Z,395
2019-06-26T07:01:18.008Z,400
2019-06-26T07:02:18.000Z,395
2019-06-26T07:03:17.778Z,395
2019-06-26T07:04:18.000Z,395
2019-06-26T07:05:18.384Z,390
2019-06-26T07:06:18.160Z,385
2019-06-26T07:07:18.297Z,385
2019-06-26T07:08:17.835Z,370
2019-06-26T07:09:18.072Z,365
2019-06-26T07:10:18.103Z,365
2019-06-26T07:11:18.337Z,360
2019-06-26T07:12:20.757Z,360
2019-06-26T07:13:17.901Z,350
2019-06-26T07:14:18.167Z,350
2019-06-26T07:15:18.369Z,355
2019-06-26T07:16:18.389Z,365
2019-06-26T07:17:29.647Z,370
2019-06-26T07:18:18.182Z,370
2019-06-26T07:19:18.478Z,370
2019-06-26T07:20:18.281Z,375
2019-06-26T07:21:17.980Z,385
2019-06-26T07:22:17.984Z,385
2019-06-26T07:23:18.471Z,385
2019-06-26T07:24:18.273Z,385
2019-06-26T07:25:18.233Z,385
2019-06-26T07:26:20.555Z,385
2019-06-26T07:27:18.495Z,380
2019-06-26T07:28:18.917Z,380
2019-06-26T07:29:18.103Z,380
2019-06-26T07:30:18.274Z,380
2019-06-26T07:31:18.535Z,380
2019-06-26T07:32:18.497Z,375
2019-06-26T07:33:18.557Z,370
2019-06-26T07:34:18.374Z,375
2019-06-26T07:35:18.095Z,380
2019-06-26T07:36:18.602Z,385
2019-06-26T07:37:18.356Z,385
2019-06-26T07:38:18.396Z,390
2019-06-26T07:39:18.164Z,395
2019-06-26T07:40:18.633Z,385
2019-06-26T07:41:18.636Z,390
2019-06-26T07:42:18.475Z,390
2019-06-26T07:43:23.504Z,385
2019-06-26T07:44:17.968Z,385
2019-06-26T07:45:18.203Z,385
2019-06-26T07:46:17.953Z,385
2019-06-26T07:47:49.587Z,385
2019-06-26T07:48:19.348Z,385
2019-06-26T07:49:18.484Z,385
2019-06-26T07:50:18.267Z,385
2019-06-26T07:51:18.761Z,380
2019-06-26T07:52:18.313Z,380
2019-06-26T07:53:18.287Z,380
2019-06-26T07:54:18.314Z,375
2019-06-26T07:55:21.304Z,380
2019-06-26T07:56:18.824Z,375
2019-06-26T07:57:18.579Z,375
2019-06-26T07:58:18.373Z,370
2019-06-26T07:59:18.369Z,355
2019-06-26T08:00:18.389Z,345
2019-06-26T08:01:18.409Z,350
2019-06-26T08:02:18.903Z,350
2019-06-26T08:03:18.952Z,380
2019-06-26T08:04:18.500Z,380
2019-06-26T08:05:18.945Z,375
2019-06-26T08:06:18.751Z,375
2019-06-26T08:07:18.456Z,375
2019-06-26T08:08:21.534Z,375
2019-06-26T08:09:18.506Z,375
2019-06-26T08:10:18.613Z,375
2019-06-26T08:11:18.540Z,375
2019-06-26T08:12:18.529Z,370
2019-06-26T08:13:19.037Z,370
2019-06-26T08:14:18.535Z,370
2019-06-26T08:15:18.809Z,365
2019-06-26T08:16:19.222Z,365
2019-06-26T08:17:18.350Z,365
2019-06-26T08:18:18.646Z,365
2019-06-26T08:19:18.580Z,365
2019-06-26T08:20:18.856Z,365
2019-06-26T08:21:22.326Z,360
2019-06-26T08:22:18.625Z,360
2019-06-26T08:23:18.889Z,360
2019-06-26T08:24:18.922Z,360
2019-06-26T08:25:18.923Z,365
2019-06-26T08:26:18.941Z,350
2019-06-26T08:27:22.138Z,345
2019-06-26T08:28:18.703Z,335
2019-06-26T08:29:19.214Z,330
2019-06-26T08:30:19.219Z,330
2019-06-26T08:31:18.840Z,330
2019-06-26T08:32:19.226Z,330
2019-06-26T08:33:19.030Z,325
2019-06-26T08:34:18.557Z,340
2019-06-26T08:35:19.461Z,345
2019-06-26T08:36:18.529Z,345
2019-06-26T08:37:18.854Z,345
2019-06-26T08:38:24.258Z,345
2019-06-26T08:39:19.364Z,340
2019-06-26T08:40:18.898Z,340
2019-06-26T08:41:19.080Z,340
2019-06-26T08:42:19.127Z,340
2019-06-26T08:43:19.227Z,340
2019-06-26T08:44:19.707Z,340
2019-06-26T08:45:18.982Z,335
2019-06-26T08:46:18.908Z,335
2019-06-26T08:47:18.900Z,335
2019-06-26T08:48:46.210Z,335
2019-06-26T08:49:34.159Z,330
2019-06-26T08:50:18.953Z,330
2019-06-26T08:51:19.093Z,330
2019-06-26T08:52:18.744Z,330
2019-06-26T08:53:19.344Z,320
2019-06-26T08:54:19.305Z,320
2019-06-26T08:55:19.072Z,320
2019-06-26T08:56:19.570Z,325
2019-06-26T08:57:19.560Z,325
2019-06-26T08:58:19.140Z,325
2019-06-26T08:59:19.327Z,325
2019-06-26T09:00:19.487Z,325
2019-06-26T09:01:19.242Z,325
2019-06-26T09:02:19.401Z,325
2019-06-26T09:03:19.348Z,325
2019-06-26T09:04:19.170Z,325
2019-06-26T09:05:19.366Z,325
2019-06-26T09:06:19.155Z,325
2019-06-26T09:07:19.466Z,320
2019-06-26T09:08:19.912Z,320
2019-06-26T09:09:19.006Z,315
2019-06-26T09:10:19.196Z,305
2019-06-26T09:11:19.242Z,300
2019-06-26T09:12:19.752Z,300
2019-06-26T09:13:19.464Z,295
2019-06-26T09:14:19.222Z,300
2019-06-26T09:15:19.523Z,300
2019-06-26T09:16:19.502Z,295
2019-06-26T09:17:19.554Z,295
2019-06-26T09:18:36.633Z,295
2019-06-26T09:19:19.515Z,300
2019-06-26T09:20:19.566Z,295
2019-06-26T09:21:19.690Z,295
2019-06-26T09:22:19.567Z,295
2019-06-26T09:23:19.572Z,300
2019-06-26T09:24:19.571Z,295
2019-06-26T09:25:30.881Z,295
2019-06-26T09:26:19.312Z,290
2019-06-26T09:27:22.226Z,290
2019-06-26T09:28:19.862Z,295
2019-06-26T09:29:22.734Z,300
2019-06-26T09:30:19.776Z,290
2019-06-26T09:31:19.389Z,290
2019-06-26T09:32:19.634Z,290
2019-06-26T09:33:19.632Z,290
2019-06-26T09:34:19.694Z,295
2019-06-26T09:35:19.687Z,290
2019-06-26T09:36:19.464Z,290
2019-06-26T09:37:19.682Z,295
2019-06-26T09:38:19.456Z,295
2019-06-26T09:39:19.703Z,290
2019-06-26T09:40:19.717Z,295
2019-06-26T09:41:19.445Z,290
2019-06-26T09:42:23.823Z,295
2019-06-26T09:43:19.280Z,290
2019-06-26T09:44:19.507Z,290
2019-06-26T09:45:20.031Z,290
2019-06-26T09:46:20.051Z,290
2019-06-26T09:47:22.317Z,290
2019-06-26T09:48:19.528Z,290
2019-06-26T09:49:19.518Z,295
2019-06-26T09:50:19.502Z,290
2019-06-26T09:51:19.817Z,290
2019-06-26T09:52:19.827Z,290
2019-06-26T09:53:20.062Z,290
2019-06-26T09:54:20.056Z,290
2019-06-26T09:55:19.816Z,295
2019-06-26T09:56:19.809Z,290
2019-06-26T09:57:19.587Z,295
2019-06-26T09:58:22.714Z,295
2019-06-26T09:59:19.623Z,290
2019-06-26T10:00:19.337Z,285
2019-06-26T10:01:19.879Z,285
2019-06-26T10:02:20.105Z,285
2019-06-26T10:03:20.121Z,285
2019-06-26T10:04:19.630Z,280
2019-06-26T10:05:19.913Z,285
2019-06-26T10:06:19.967Z,280
2019-06-26T10:07:19.645Z,285
2019-06-26T10:08:19.636Z,280
2019-06-26T10:09:19.730Z,275
2019-06-26T10:10:19.428Z,280
2019-06-26T10:11:19.724Z,280
2019-06-26T10:12:19.566Z,280
2019-06-26T10:13:20.196Z,275
2019-06-26T10:14:19.744Z,270
2019-06-26T10:15:19.469Z,270
2019-06-26T10:16:19.971Z,270
2019-06-26T10:17:19.458Z,275
2019-06-26T10:18:20.225Z,265
2019-06-26T10:19:20.168Z,265
2019-06-26T10:20:20.426Z,270
2019-06-26T10:21:23.452Z,265
2019-06-26T10:22:19.757Z,265
2019-06-26T10:23:20.259Z,260
2019-06-26T10:24:20.296Z,260
2019-06-26T10:25:20.931Z,250
2019-06-26T10:26:19.811Z,250
2019-06-26T10:27:19.856Z,255
2019-06-26T10:28:20.102Z,260
2019-06-26T10:29:19.825Z,260
2019-06-26T10:30:20.097Z,260
2019-06-26T10:31:22.939Z,255
2019-06-26T10:32:20.200Z,255
2019-06-26T10:33:19.972Z,255
2019-06-26T10:34:20.364Z,255
2019-06-26T10:35:20.454Z,255
2019-06-26T10:36:19.879Z,255
2019-06-26T10:37:19.616Z,245
2019-06-26T10:38:20.584Z,250
2019-06-26T10:39:20.135Z,235
2019-06-26T10:40:23.237Z,245
2019-06-26T10:41:20.145Z,245
2019-06-26T10:42:20.235Z,250
2019-06-26T10:43:20.013Z,250
2019-06-26T10:44:19.990Z,245
2019-06-26T10:45:20.156Z,245
2019-06-26T10:46:20.460Z,245
2019-06-26T10:47:19.991Z,245
2019-06-26T10:48:20.224Z,245
2019-06-26T10:49:35.939Z,245
2019-06-26T10:50:20.481Z,245
2019-06-26T10:51:20.286Z,245
2019-06-26T10:52:20.245Z,245
2019-06-26T10:53:20.487Z,245
2019-06-26T10:54:20.399Z,245
2019-06-26T10:55:20.011Z,245
2019-06-26T10:56:20.007Z,245
2019-06-26T10:57:20.024Z,240
2019-06-26T10:58:20.001Z,240
2019-06-26T10:59:20.055Z,240
2019-06-26T11:00:20.056Z,240
2019-06-26T11:01:20.057Z,240
2019-06-26T11:02:23.671Z,240
2019-06-26T11:03:20.094Z,240
2019-06-26T11:04:19.871Z,240
2019-06-26T11:05:20.299Z,240
2019-06-26T11:06:20.401Z,240
2019-06-26T11:07:20.165Z,240
2019-06-26T11:08:19.856Z,240
2019-06-26T11:09:20.133Z,240
2019-06-26T11:10:20.410Z,240
2019-06-26T11:11:20.655Z,240
2019-06-26T11:12:20.400Z,235
2019-06-26T11:13:20.475Z,235
2019-06-26T11:14:20.410Z,240
2019-06-26T11:15:20.433Z,240
2019-06-26T11:16:20.588Z,235
2019-06-26T11:17:20.442Z,235
2019-06-26T11:18:20.459Z,235
2019-06-26T11:19:20.659Z,235
2019-06-26T11:20:20.786Z,235
2019-06-26T11:21:20.744Z,235
2019-06-26T11:22:19.957Z,235
2019-06-26T11:23:20.039Z,235
2019-06-26T11:24:20.488Z,235
2019-06-26T11:25:20.297Z,235
2019-06-26T11:26:20.502Z,235
2019-06-26T11:27:20.755Z,235
2019-06-26T11:28:20.723Z,235
2019-06-26T11:29:20.320Z,235
2019-06-26T11:30:20.487Z,235
2019-06-26T11:31:20.793Z,235
2019-06-26T11:32:20.764Z,235
2019-06-26T11:33:20.790Z,235
2019-06-26T11:34:20.877Z,235
2019-06-26T11:35:20.845Z,230
2019-06-26T11:36:20.845Z,230
2019-06-26T11:37:22.696Z,230
2019-06-26T11:38:20.083Z,230
2019-06-26T11:39:20.575Z,230
2019-06-26T11:40:20.107Z,230
2019-06-26T11:41:20.556Z,230
2019-06-26T11:42:20.564Z,230
2019-06-26T11:43:20.857Z,230
2019-06-26T11:44:20.341Z,235
2019-06-26T11:45:20.698Z,230
2019-06-26T11:46:20.351Z,230
2019-06-26T11:47:20.620Z,230
2019-06-26T11:48:20.705Z,230
2019-06-26T11:49:20.207Z,230
2019-06-26T11:50:20.895Z,230
2019-06-26T11:51:20.158Z,230
2019-06-26T11:52:20.405Z,230
2019-06-26T11:53:20.660Z,230
2019-06-26T11:54:20.914Z,225
2019-06-26T11:55:20.906Z,225
2019-06-26T11:56:20.942Z,225
2019-06-26T11:57:20.799Z,225
2019-06-26T11:58:20.543Z,225
2019-06-26T11:59:20.511Z,225
2019-06-26T12:00:21.079Z,225
2019-06-26T12:01:20.786Z,225
2019-06-26T12:02:20.464Z,225
2019-06-26T12:03:22.640Z,225
2019-06-26T12:04:20.261Z,225
2019-06-26T12:05:21.094Z,220
2019-06-26T12:06:28.476Z,220
2019-06-26T12:07:21.134Z,220
2019-06-26T12:08:23.334Z,220
2019-06-26T12:09:20.911Z,220
2019-06-26T12:10:20.938Z,220
2019-06-26T12:11:20.526Z,220
2019-06-26T12:12:21.436Z,215
2019-06-26T12:13:20.569Z,215
2019-06-26T12:14:20.808Z,215
2019-06-26T12:15:20.919Z,215
2019-06-26T12:16:20.585Z,215
2019-06-26T12:17:20.646Z,215
2019-06-26T12:18:21.123Z,215
2019-06-26T12:19:25.963Z,215
2019-06-26T12:20:28.616Z,215
2019-06-26T12:21:20.911Z,215
2019-06-26T12:22:20.864Z,210
2019-06-26T12:23:20.882Z,215
2019-06-26T12:24:20.949Z,210
2019-06-26T12:25:21.004Z,210
2019-06-26T12:26:21.167Z,210
2019-06-26T12:27:20.894Z,210
2019-06-26T12:28:20.671Z,210
2019-06-26T12:29:21.237Z,210
2019-06-26T12:30:20.901Z,210
2019-06-26T12:31:20.685Z,210
2019-06-26T12:32:20.522Z,210
2019-06-26T12:33:20.702Z,210
2019-06-26T12:34:20.978Z,215
2019-06-26T12:35:21.078Z,205
2019-06-26T12:36:20.929Z,205
2019-06-26T12:37:33.990Z,205
2019-06-26T12:38:20.743Z,205
2019-06-26T12:39:20.788Z,205
2019-06-26T12:40:21.243Z,210
2019-06-26T12:41:20.533Z,205
2019-06-26T12:42:21.010Z,205
2019-06-26T12:43:21.053Z,205
2019-06-26T12:44:20.834Z,205
2019-06-26T12:45:20.808Z,205
2019-06-26T12:46:24.933Z,205
2019-06-26T12:47:21.291Z,205
2019-06-26T12:48:23.385Z,205
2019-06-26T12:49:21.050Z,205
2019-06-26T12:50:36.915Z,205
2019-06-26T12:51:21.378Z,205
2019-06-26T12:52:24.168Z,200
2019-06-26T12:53:20.879Z,200
2019-06-26T12:54:21.070Z,200
2019-06-26T12:55:20.666Z,205
2019-06-26T12:56:20.884Z,200
2019-06-26T12:57:21.112Z,200
2019-06-26T12:58:27.548Z,200
2019-06-26T12:59:20.660Z,200
2019-06-26T13:00:21.164Z,205
2019-06-26T13:01:20.961Z,205
2019-06-26T13:02:21.205Z,205
2019-06-26T13:03:20.911Z,205
2019-06-26T13:04:21.408Z,205
2019-06-26T13:05:21.280Z,205
2019-06-26T13:06:21.179Z,205
2019-06-26T13:07:21.437Z,205
2019-06-26T13:08:20.479Z,210
2019-06-26T13:09:21.074Z,205
2019-06-26T13:10:21.194Z,205
2019-06-26T13:11:21.492Z,205
2019-06-26T13:12:21.238Z,205
2019-06-26T13:13:20.987Z,205
2019-06-26T13:14:21.009Z,210
2019-06-26T13:15:21.293Z,205
2019-06-26T13:16:21.040Z,205
2019-06-26T13:17:21.563Z,205
2019-06-26T13:18:21.370Z,210
2019-06-26T13:19:21.061Z,205
2019-06-26T13:20:21.657Z,205
2019-06-26T13:21:21.068Z,205
2019-06-26T13:22:21.087Z,205
2019-06-26T13:23:24.452Z,205
2019-06-26T13:24:21.348Z,210
2019-06-26T13:25:25.164Z,205
2019-06-26T13:26:21.552Z,205
2019-06-26T13:27:21.083Z,205
2019-06-26T13:28:21.323Z,205
2019-06-26T13:29:21.579Z,205
2019-06-26T13:30:21.405Z,205
2019-06-26T13:31:21.335Z,205
2019-06-26T13:32:23.713Z,210
2019-06-26T13:33:21.637Z,205
2019-06-26T13:34:21.632Z,205
2019-06-26T13:35:24.224Z,205
2019-06-26T13:36:21.619Z,205
2019-06-26T13:37:21.790Z,205
2019-06-26T13:38:21.190Z,205
2019-06-26T13:39:21.472Z,205
2019-06-26T13:40:21.211Z,205
2019-06-26T13:41:21.686Z,205
2019-06-26T13:42:21.459Z,205
2019-06-26T13:43:21.208Z,205
2019-06-26T13:44:21.716Z,205
2019-06-26T13:45:21.759Z,205
2019-06-26T13:46:21.492Z,205
2019-06-26T13:47:21.730Z,205
2019-06-26T13:48:21.462Z,205
2019-06-26T13:49:23.568Z,205
2019-06-26T13:50:21.751Z,205
2019-06-26T13:51:23.923Z,205
2019-06-26T13:52:21.498Z,205
2019-06-26T13:53:20.800Z,205
2019-06-26T13:54:21.806Z,205
2019-06-26T13:55:21.549Z,205
2019-06-26T13:56:21.927Z,205
2019-06-26T13:57:25.068Z,205
2019-06-26T13:58:21.544Z,205
2019-06-26T13:59:21.539Z,205
2019-06-26T14:00:21.866Z,205
2019-06-26T14:01:25.372Z,205